sensor_id;sensor_type;location;lat;lon;timestamp;P1;P2;P0
79117;PMS7003;68523;51.336;-0.846;2023-12-20T00:00:00;2;2;
79117;PMS7003;68523;51.336;-0.846;2023-12-20T00:03:00;5;1;
79117;PMS7003;68523;51.336;-0.846;2023-12-20T00:06:00;5;1;
79117;PMS7003;68523;51.336;-0.846;2023-12-20T00:09:00;5;2;
79117;PMS7003;68523;51.336;-0.846;2023-12-20T00:12:00;5;2;
79117;PMS7003;68523;51.336;-0.846;2023-12-20T00:15:00;6;2;
79117;PMS7003;68523;51.336;-0.846;2023-12-20T00:18:00;3;2;
79117;PMS7003;68523;51.336;-0.846;2023-12-20T00:21:00;3;2;
79117;PMS7003;68523;51.336;-0.846;2023-12-20T00:24:00;6;2;
79117;PMS7003;68523;51.336;-0.846;2023-12-20T00:27:00;6;2;
79117;PMS7003;68523;51.336;-0.846;2023-12-20T00:30:00;5;1;
79117;PMS7003;68523;51.336;-0.846;2023-12-20T00:33:00;3;1;
79117;PMS7003;68523;51.336;-0.846;2023-12-20T00:36:00;3;1;
79117;PMS7003;68523;51.336;-0.846;2023-12-20T00:39:00;5;3;
79117;PMS7003;68523;51.336;-0.846;2023-12-20T00:42:00;5;3;
79117;PMS7003;68523;51.336;-0.846;2023-12-20T00:45:00;9;2;
79117;PMS7003;68523;51.336;-0.846;2023-12-20T00:48:00;5;1;
79117;PMS7003;68523;51.336;-0.846;2023-12-20T00:51:00;5;1;
79117;PMS7003;68523;51.336;-0.846;2023-12-20T00:54:00;3;1;
79117;PMS7003;68523;51.336;-0.846;2023-12-20T00:57:00;3;1;
79117;PMS7003;68523;51.336;-0.846;2023-12-20T01:00:00;2;1;
79117;PMS7003;68523;51.336;-0.846;2023-12-20T01:03:00;6;3;
79117;PMS7003;68523;51.336;-0.846;2023-12-20T01:06:00;6;3;
79117;PMS7003;68523;51.336;-0.846;2023-12-20T01:09:00;3;2;
79117;PMS7003;68523;51.336;-0.846;2023-12-20T01:12:00;3;2;
79117;PMS7003;68523;51.336;-0.846;2023-12-20T01:15:00;5;2;
79117;PMS7003;68523;51.336;-0.846;2023-12-20T01:18:00;3;2;
79117;PMS7003;68523;51.336;-0.846;2023-12-20T01:21:01;3;2;
79117;PMS7003;68523;51.336;-0.846;2023-12-20T01:24:00;5;5;
79117;PMS7003;68523;51.336;-0.846;2023-12-20T01:27:00;5;5;
79117;PMS7003;68523;51.336;-0.846;2023-12-20T01:30:00;6;3;
79117;PMS7003;68523;51.336;-0.846;2023-12-20T01:33:00;1;1;
79117;PMS7003;68523;51.336;-0.846;2023-12-20T01:36:00;1;1;
79117;PMS7003;68523;51.336;-0.846;2023-12-20T01:39:00;6;2;
79117;PMS7003;68523;51.336;-0.846;2023-12-20T01:42:00;6;2;
79117;PMS7003;68523;51.336;-0.846;2023-12-20T01:45:00;3;2;
79117;PMS7003;68523;51.336;-0.846;2023-12-20T01:48:00;6;5;
79117;PMS7003;68523;51.336;-0.846;2023-12-20T01:51:00;6;5;
79117;PMS7003;68523;51.336;-0.846;2023-12-20T01:54:00;7;3;
79117;PMS7003;68523;51.336;-0.846;2023-12-20T01:57:00;7;3;
79117;PMS7003;68523;51.336;-0.846;2023-12-20T02:00:00;5;3;
79117;PMS7003;68523;51.336;-0.846;2023-12-20T02:03:01;5;4;
79117;PMS7003;68523;51.336;-0.846;2023-12-20T02:06:00;5;4;
79117;PMS7003;68523;51.336;-0.846;2023-12-20T02:09:00;7;3;
79117;PMS7003;68523;51.336;-0.846;2023-12-20T02:12:00;7;3;
79117;PMS7003;68523;51.336;-0.846;2023-12-20T02:15:00;3;2;
79117;PMS7003;68523;51.336;-0.846;2023-12-20T02:18:00;5;1;
79117;PMS7003;68523;51.336;-0.846;2023-12-20T02:21:00;5;1;
79117;PMS7003;68523;51.336;-0.846;2023-12-20T02:24:00;6;2;
79117;PMS7003;68523;51.336;-0.846;2023-12-20T02:27:00;6;2;
79117;PMS7003;68523;51.336;-0.846;2023-12-20T02:30:00;6;3;
79117;PMS7003;68523;51.336;-0.846;2023-12-20T02:33:00;6;2;
79117;PMS7003;68523;51.336;-0.846;2023-12-20T02:36:00;6;2;
79117;PMS7003;68523;51.336;-0.846;2023-12-20T02:39:00;2;2;
79117;PMS7003;68523;51.336;-0.846;2023-12-20T02:42:00;2;2;
79117;PMS7003;68523;51.336;-0.846;2023-12-20T02:45:00;9;4;
79117;PMS7003;68523;51.336;-0.846;2023-12-20T02:48:01;8;3;
79117;PMS7003;68523;51.336;-0.846;2023-12-20T02:51:00;8;3;
79117;PMS7003;68523;51.336;-0.846;2023-12-20T02:54:00;2;2;
79117;PMS7003;68523;51.336;-0.846;2023-12-20T02:57:00;2;2;
79117;PMS7003;68523;51.336;-0.846;2023-12-20T03:00:00;14;5;
79117;PMS7003;68523;51.336;-0.846;2023-12-20T03:03:00;5;5;
79117;PMS7003;68523;51.336;-0.846;2023-12-20T03:06:00;5;5;
79117;PMS7003;68523;51.336;-0.846;2023-12-20T03:09:00;5;2;
79117;PMS7003;68523;51.336;-0.846;2023-12-20T03:12:00;5;2;
79117;PMS7003;68523;51.336;-0.846;2023-12-20T03:15:00;2;0;
79117;PMS7003;68523;51.336;-0.846;2023-12-20T03:18:00;2;0;
79117;PMS7003;68523;51.336;-0.846;2023-12-20T03:21:00;5;1;
79117;PMS7003;68523;51.336;-0.846;2023-12-20T03:24:00;6;2;
79117;PMS7003;68523;51.336;-0.846;2023-12-20T03:27:00;6;2;
79117;PMS7003;68523;51.336;-0.846;2023-12-20T03:30:00;3;2;
79117;PMS7003;68523;51.336;-0.846;2023-12-20T03:33:00;3;2;
79117;PMS7003;68523;51.336;-0.846;2023-12-20T03:36:00;3;2;
79117;PMS7003;68523;51.336;-0.846;2023-12-20T03:39:00;6;3;
79117;PMS7003;68523;51.336;-0.846;2023-12-20T03:42:00;6;3;
79117;PMS7003;68523;51.336;-0.846;2023-12-20T03:45:00;5;3;
79117;PMS7003;68523;51.336;-0.846;2023-12-20T03:48:00;5;3;
79117;PMS7003;68523;51.336;-0.846;2023-12-20T03:51:00;5;1;
79117;PMS7003;68523;51.336;-0.846;2023-12-20T03:54:00;2;2;
79117;PMS7003;68523;51.336;-0.846;2023-12-20T03:57:00;2;2;
79117;PMS7003;68523;51.336;-0.846;2023-12-20T04:00:00;4;1;
79117;PMS7003;68523;51.336;-0.846;2023-12-20T04:03:00;4;1;
79117;PMS7003;68523;51.336;-0.846;2023-12-20T04:06:00;5;2;
79117;PMS7003;68523;51.336;-0.846;2023-12-20T04:09:00;5;2;
79117;PMS7003;68523;51.336;-0.846;2023-12-20T04:12:00;5;2;
79117;PMS7003;68523;51.336;-0.846;2023-12-20T04:15:00;2;2;
79117;PMS7003;68523;51.336;-0.846;2023-12-20T04:18:00;2;2;
79117;PMS7003;68523;51.336;-0.846;2023-12-20T04:21:01;7;5;
79117;PMS7003;68523;51.336;-0.846;2023-12-20T04:24:00;10;5;
79117;PMS7003;68523;51.336;-0.846;2023-12-20T04:27:00;10;5;
79117;PMS7003;68523;51.336;-0.846;2023-12-20T04:30:00;6;3;
79117;PMS7003;68523;51.336;-0.846;2023-12-20T04:33:00;6;3;
79117;PMS7003;68523;51.336;-0.846;2023-12-20T04:36:00;5;2;
79117;PMS7003;68523;51.336;-0.846;2023-12-20T04:39:00;3;3;
79117;PMS7003;68523;51.336;-0.846;2023-12-20T04:42:00;3;3;
79117;PMS7003;68523;51.336;-0.846;2023-12-20T04:45:00;6;3;
79117;PMS7003;68523;51.336;-0.846;2023-12-20T04:48:00;6;3;
79117;PMS7003;68523;51.336;-0.846;2023-12-20T04:51:00;3;2;
79117;PMS7003;68523;51.336;-0.846;2023-12-20T04:54:00;6;3;
79117;PMS7003;68523;51.336;-0.846;2023-12-20T04:57:00;6;3;
79117;PMS7003;68523;51.336;-0.846;2023-12-20T05:00:00;5;2;
79117;PMS7003;68523;51.336;-0.846;2023-12-20T05:03:00;5;2;
79117;PMS7003;68523;51.336;-0.846;2023-12-20T05:06:00;8;3;
79117;PMS7003;68523;51.336;-0.846;2023-12-20T05:09:00;3;1;
79117;PMS7003;68523;51.336;-0.846;2023-12-20T05:12:01;3;1;
79117;PMS7003;68523;51.336;-0.846;2023-12-20T05:15:00;6;1;
79117;PMS7003;68523;51.336;-0.846;2023-12-20T05:18:00;6;1;
79117;PMS7003;68523;51.336;-0.846;2023-12-20T05:21:00;4;1;
79117;PMS7003;68523;51.336;-0.846;2023-12-20T05:24:00;6;2;
79117;PMS7003;68523;51.336;-0.846;2023-12-20T05:27:00;6;2;
79117;PMS7003;68523;51.336;-0.846;2023-12-20T05:30:00;6;2;
79117;PMS7003;68523;51.336;-0.846;2023-12-20T05:33:00;6;2;
79117;PMS7003;68523;51.336;-0.846;2023-12-20T05:36:00;8;3;
79117;PMS7003;68523;51.336;-0.846;2023-12-20T05:39:00;4;2;
79117;PMS7003;68523;51.336;-0.846;2023-12-20T05:42:00;4;2;
79117;PMS7003;68523;51.336;-0.846;2023-12-20T05:45:00;11;2;
79117;PMS7003;68523;51.336;-0.846;2023-12-20T05:48:00;11;2;
79117;PMS7003;68523;51.336;-0.846;2023-12-20T05:51:00;5;3;
79117;PMS7003;68523;51.336;-0.846;2023-12-20T05:54:00;7;2;
79117;PMS7003;68523;51.336;-0.846;2023-12-20T05:57:00;7;2;
79117;PMS7003;68523;51.336;-0.846;2023-12-20T06:00:00;6;3;
79117;PMS7003;68523;51.336;-0.846;2023-12-20T06:03:00;6;3;
79117;PMS7003;68523;51.336;-0.846;2023-12-20T06:06:04;5;3;
79117;PMS7003;68523;51.336;-0.846;2023-12-20T06:09:00;8;3;
79117;PMS7003;68523;51.336;-0.846;2023-12-20T06:12:00;8;3;
79117;PMS7003;68523;51.336;-0.846;2023-12-20T06:15:00;8;3;
79117;PMS7003;68523;51.336;-0.846;2023-12-20T06:18:00;8;3;
79117;PMS7003;68523;51.336;-0.846;2023-12-20T06:21:00;7;5;
79117;PMS7003;68523;51.336;-0.846;2023-12-20T06:24:00;6;5;
79117;PMS7003;68523;51.336;-0.846;2023-12-20T06:27:00;6;5;
79117;PMS7003;68523;51.336;-0.846;2023-12-20T06:30:00;5;2;
79117;PMS7003;68523;51.336;-0.846;2023-12-20T06:33:00;5;2;
79117;PMS7003;68523;51.336;-0.846;2023-12-20T06:36:00;3;2;
79117;PMS7003;68523;51.336;-0.846;2023-12-20T06:39:00;8;1;
79117;PMS7003;68523;51.336;-0.846;2023-12-20T06:42:00;8;1;
79117;PMS7003;68523;51.336;-0.846;2023-12-20T06:45:00;7;3;
79117;PMS7003;68523;51.336;-0.846;2023-12-20T06:48:00;7;3;
79117;PMS7003;68523;51.336;-0.846;2023-12-20T06:51:00;3;2;
79117;PMS7003;68523;51.336;-0.846;2023-12-20T06:54:00;7;3;
79117;PMS7003;68523;51.336;-0.846;2023-12-20T06:57:00;7;3;
79117;PMS7003;68523;51.336;-0.846;2023-12-20T07:00:00;6;3;
79117;PMS7003;68523;51.336;-0.846;2023-12-20T07:03:00;6;3;
79117;PMS7003;68523;51.336;-0.846;2023-12-20T07:06:00;13;5;
79117;PMS7003;68523;51.336;-0.846;2023-12-20T07:09:00;9;2;
79117;PMS7003;68523;51.336;-0.846;2023-12-20T07:12:00;9;2;
79117;PMS7003;68523;51.336;-0.846;2023-12-20T07:15:00;6;4;
79117;PMS7003;68523;51.336;-0.846;2023-12-20T07:18:00;6;4;
79117;PMS7003;68523;51.336;-0.846;2023-12-20T07:21:00;3;2;
79117;PMS7003;68523;51.336;-0.846;2023-12-20T07:24:00;8;3;
79117;PMS7003;68523;51.336;-0.846;2023-12-20T07:27:00;8;3;
79117;PMS7003;68523;51.336;-0.846;2023-12-20T07:30:00;8;3;
79117;PMS7003;68523;51.336;-0.846;2023-12-20T07:33:00;8;3;
79117;PMS7003;68523;51.336;-0.846;2023-12-20T07:36:00;11;4;
79117;PMS7003;68523;51.336;-0.846;2023-12-20T07:39:00;7;2;
79117;PMS7003;68523;51.336;-0.846;2023-12-20T07:42:00;7;2;
79117;PMS7003;68523;51.336;-0.846;2023-12-20T07:45:00;7;2;
79117;PMS7003;68523;51.336;-0.846;2023-12-20T07:48:00;7;2;
79117;PMS7003;68523;51.336;-0.846;2023-12-20T07:51:00;6;4;
79117;PMS7003;68523;51.336;-0.846;2023-12-20T07:54:00;9;3;
79117;PMS7003;68523;51.336;-0.846;2023-12-20T07:57:00;9;3;
79117;PMS7003;68523;51.336;-0.846;2023-12-20T08:00:00;6;3;
79117;PMS7003;68523;51.336;-0.846;2023-12-20T08:03:00;6;3;
79117;PMS7003;68523;51.336;-0.846;2023-12-20T08:09:00;4;2;
79117;PMS7003;68523;51.336;-0.846;2023-12-20T08:12:00;4;2;
79117;PMS7003;68523;51.336;-0.846;2023-12-20T08:15:01;7;2;
79117;PMS7003;68523;51.336;-0.846;2023-12-20T08:18:00;7;2;
79117;PMS7003;68523;51.336;-0.846;2023-12-20T08:21:00;4;3;
79117;PMS7003;68523;51.336;-0.846;2023-12-20T08:24:00;8;4;
79117;PMS7003;68523;51.336;-0.846;2023-12-20T08:27:00;8;4;
79117;PMS7003;68523;51.336;-0.846;2023-12-20T08:30:00;4;1;
79117;PMS7003;68523;51.336;-0.846;2023-12-20T08:33:00;4;1;
79117;PMS7003;68523;51.336;-0.846;2023-12-20T08:36:00;6;2;
79117;PMS7003;68523;51.336;-0.846;2023-12-20T08:39:00;2;2;
79117;PMS7003;68523;51.336;-0.846;2023-12-20T08:42:00;2;2;
79117;PMS7003;68523;51.336;-0.846;2023-12-20T08:45:00;4;2;
79117;PMS7003;68523;51.336;-0.846;2023-12-20T08:48:00;4;2;
79117;PMS7003;68523;51.336;-0.846;2023-12-20T08:51:00;2;1;
79117;PMS7003;68523;51.336;-0.846;2023-12-20T08:54:00;6;2;
79117;PMS7003;68523;51.336;-0.846;2023-12-20T08:57:00;6;2;
79117;PMS7003;68523;51.336;-0.846;2023-12-20T09:00:00;2;2;
79117;PMS7003;68523;51.336;-0.846;2023-12-20T09:03:00;2;2;
79117;PMS7003;68523;51.336;-0.846;2023-12-20T09:06:00;2;2;
79117;PMS7003;68523;51.336;-0.846;2023-12-20T09:09:00;6;2;
79117;PMS7003;68523;51.336;-0.846;2023-12-20T09:12:00;6;2;
79117;PMS7003;68523;51.336;-0.846;2023-12-20T09:15:00;2;1;
79117;PMS7003;68523;51.336;-0.846;2023-12-20T09:18:01;2;1;
79117;PMS7003;68523;51.336;-0.846;2023-12-20T09:21:00;2;2;
79117;PMS7003;68523;51.336;-0.846;2023-12-20T09:24:00;2;2;
79117;PMS7003;68523;51.336;-0.846;2023-12-20T09:27:00;2;2;
79117;PMS7003;68523;51.336;-0.846;2023-12-20T09:30:00;3;1;
79117;PMS7003;68523;51.336;-0.846;2023-12-20T09:33:00;3;1;
79117;PMS7003;68523;51.336;-0.846;2023-12-20T09:36:00;1;1;
79117;PMS7003;68523;51.336;-0.846;2023-12-20T09:39:00;6;3;
79117;PMS7003;68523;51.336;-0.846;2023-12-20T09:42:01;6;3;
79117;PMS7003;68523;51.336;-0.846;2023-12-20T09:45:00;11;3;
79117;PMS7003;68523;51.336;-0.846;2023-12-20T09:48:00;11;3;
79117;PMS7003;68523;51.336;-0.846;2023-12-20T09:51:00;3;2;
79117;PMS7003;68523;51.336;-0.846;2023-12-20T09:54:00;2;2;
79117;PMS7003;68523;51.336;-0.846;2023-12-20T09:57:00;2;2;
79117;PMS7003;68523;51.336;-0.846;2023-12-20T10:00:00;3;1;
79117;PMS7003;68523;51.336;-0.846;2023-12-20T10:03:00;3;1;
79117;PMS7003;68523;51.336;-0.846;2023-12-20T10:06:00;2;2;
79117;PMS7003;68523;51.336;-0.846;2023-12-20T10:09:00;3;3;
79117;PMS7003;68523;51.336;-0.846;2023-12-20T10:12:00;3;3;
79117;PMS7003;68523;51.336;-0.846;2023-12-20T10:15:00;3;3;
79117;PMS7003;68523;51.336;-0.846;2023-12-20T10:18:00;3;3;
79117;PMS7003;68523;51.336;-0.846;2023-12-20T10:21:00;9;5;
79117;PMS7003;68523;51.336;-0.846;2023-12-20T10:24:00;9;5;
79117;PMS7003;68523;51.336;-0.846;2023-12-20T10:27:01;2;1;
79117;PMS7003;68523;51.336;-0.846;2023-12-20T10:30:00;2;2;
79117;PMS7003;68523;51.336;-0.846;2023-12-20T10:33:00;2;2;
79117;PMS7003;68523;51.336;-0.846;2023-12-20T10:36:00;2;2;
79117;PMS7003;68523;51.336;-0.846;2023-12-20T10:39:00;2;2;
79117;PMS7003;68523;51.336;-0.846;2023-12-20T10:42:00;5;3;
79117;PMS7003;68523;51.336;-0.846;2023-12-20T10:45:01;7;4;
79117;PMS7003;68523;51.336;-0.846;2023-12-20T10:48:01;7;4;
79117;PMS7003;68523;51.336;-0.846;2023-12-20T10:51:00;3;1;
79117;PMS7003;68523;51.336;-0.846;2023-12-20T10:54:00;3;1;
79117;PMS7003;68523;51.336;-0.846;2023-12-20T10:57:00;5;4;
79117;PMS7003;68523;51.336;-0.846;2023-12-20T11:00:01;10;4;
79117;PMS7003;68523;51.336;-0.846;2023-12-20T11:03:00;10;4;
79117;PMS7003;68523;51.336;-0.846;2023-12-20T11:06:02;5;5;
79117;PMS7003;68523;51.336;-0.846;2023-12-20T11:09:03;5;5;
79117;PMS7003;68523;51.336;-0.846;2023-12-20T11:12:02;4;2;
79117;PMS7003;68523;51.336;-0.846;2023-12-20T11:15:00;7;5;
79117;PMS7003;68523;51.336;-0.846;2023-12-20T11:18:00;7;5;
79117;PMS7003;68523;51.336;-0.846;2023-12-20T11:21:00;4;2;
79117;PMS7003;68523;51.336;-0.846;2023-12-20T11:24:01;4;2;
79117;PMS7003;68523;51.336;-0.846;2023-12-20T11:27:00;7;2;
79117;PMS7003;68523;51.336;-0.846;2023-12-20T11:30:02;5;2;
79117;PMS7003;68523;51.336;-0.846;2023-12-20T11:33:00;5;2;
79117;PMS7003;68523;51.336;-0.846;2023-12-20T11:36:00;2;2;
79117;PMS7003;68523;51.336;-0.846;2023-12-20T11:39:00;2;2;
79117;PMS7003;68523;51.336;-0.846;2023-12-20T11:42:04;9;7;
79117;PMS7003;68523;51.336;-0.846;2023-12-20T11:45:01;14;9;
79117;PMS7003;68523;51.336;-0.846;2023-12-20T11:48:00;14;9;
79117;PMS7003;68523;51.336;-0.846;2023-12-20T11:51:00;16;15;
79117;PMS7003;68523;51.336;-0.846;2023-12-20T11:54:00;16;15;
79117;PMS7003;68523;51.336;-0.846;2023-12-20T11:57:00;16;15;
79117;PMS7003;68523;51.336;-0.846;2023-12-20T12:00:00;24;21;
79117;PMS7003;68523;51.336;-0.846;2023-12-20T12:03:00;24;21;
79117;PMS7003;68523;51.336;-0.846;2023-12-20T12:06:01;16;14;
79117;PMS7003;68523;51.336;-0.846;2023-12-20T12:09:00;16;14;
79117;PMS7003;68523;51.336;-0.846;2023-12-20T12:12:00;17;16;
79117;PMS7003;68523;51.336;-0.846;2023-12-20T12:15:00;19;17;
79117;PMS7003;68523;51.336;-0.846;2023-12-20T12:18:00;19;17;
79117;PMS7003;68523;51.336;-0.846;2023-12-20T12:21:00;8;5;
79117;PMS7003;68523;51.336;-0.846;2023-12-20T12:24:06;8;5;
79117;PMS7003;68523;51.336;-0.846;2023-12-20T12:27:00;17;13;
79117;PMS7003;68523;51.336;-0.846;2023-12-20T12:30:01;34;32;
79117;PMS7003;68523;51.336;-0.846;2023-12-20T12:33:00;34;32;
79117;PMS7003;68523;51.336;-0.846;2023-12-20T12:36:00;11;8;
79117;PMS7003;68523;51.336;-0.846;2023-12-20T12:39:02;11;8;
79117;PMS7003;68523;51.336;-0.846;2023-12-20T12:42:00;15;9;
79117;PMS7003;68523;51.336;-0.846;2023-12-20T12:45:00;12;9;
79117;PMS7003;68523;51.336;-0.846;2023-12-20T12:48:00;12;9;
79117;PMS7003;68523;51.336;-0.846;2023-12-20T12:51:00;19;17;
79117;PMS7003;68523;51.336;-0.846;2023-12-20T12:54:00;19;17;
79117;PMS7003;68523;51.336;-0.846;2023-12-20T12:57:00;10;9;
79117;PMS7003;68523;51.336;-0.846;2023-12-20T13:00:00;14;10;
79117;PMS7003;68523;51.336;-0.846;2023-12-20T13:03:00;14;10;
79117;PMS7003;68523;51.336;-0.846;2023-12-20T13:06:00;25;24;
79117;PMS7003;68523;51.336;-0.846;2023-12-20T13:09:00;25;24;
79117;PMS7003;68523;51.336;-0.846;2023-12-20T13:12:00;17;15;
79117;PMS7003;68523;51.336;-0.846;2023-12-20T13:15:00;4;4;
79117;PMS7003;68523;51.336;-0.846;2023-12-20T13:18:00;4;4;
79117;PMS7003;68523;51.336;-0.846;2023-12-20T13:21:00;4;1;
79117;PMS7003;68523;51.336;-0.846;2023-12-20T13:24:00;4;1;
79117;PMS7003;68523;51.336;-0.846;2023-12-20T13:27:00;2;1;
79117;PMS7003;68523;51.336;-0.846;2023-12-20T13:30:00;2;2;
79117;PMS7003;68523;51.336;-0.846;2023-12-20T13:33:00;2;2;
79117;PMS7003;68523;51.336;-0.846;2023-12-20T13:36:00;2;1;
79117;PMS7003;68523;51.336;-0.846;2023-12-20T13:39:00;2;1;
79117;PMS7003;68523;51.336;-0.846;2023-12-20T13:42:00;1;1;
79117;PMS7003;68523;51.336;-0.846;2023-12-20T13:45:00;1;1;
79117;PMS7003;68523;51.336;-0.846;2023-12-20T13:48:00;1;1;
79117;PMS7003;68523;51.336;-0.846;2023-12-20T13:51:00;2;1;
79117;PMS7003;68523;51.336;-0.846;2023-12-20T13:54:00;2;1;
79117;PMS7003;68523;51.336;-0.846;2023-12-20T13:57:00;5;2;
79117;PMS7003;68523;51.336;-0.846;2023-12-20T14:00:00;3;1;
79117;PMS7003;68523;51.336;-0.846;2023-12-20T14:03:00;3;1;
79117;PMS7003;68523;51.336;-0.846;2023-12-20T14:06:00;4;1;
79117;PMS7003;68523;51.336;-0.846;2023-12-20T14:09:00;4;1;
79117;PMS7003;68523;51.336;-0.846;2023-12-20T14:12:00;3;1;
79117;PMS7003;68523;51.336;-0.846;2023-12-20T14:15:00;3;1;
79117;PMS7003;68523;51.336;-0.846;2023-12-20T14:18:00;3;1;
79117;PMS7003;68523;51.336;-0.846;2023-12-20T14:21:00;4;2;
79117;PMS7003;68523;51.336;-0.846;2023-12-20T14:24:00;4;2;
79117;PMS7003;68523;51.336;-0.846;2023-12-20T14:27:00;2;1;
79117;PMS7003;68523;51.336;-0.846;2023-12-20T14:30:00;2;2;
79117;PMS7003;68523;51.336;-0.846;2023-12-20T14:33:00;2;2;
79117;PMS7003;68523;51.336;-0.846;2023-12-20T14:36:00;4;1;
79117;PMS7003;68523;51.336;-0.846;2023-12-20T14:39:00;4;1;
79117;PMS7003;68523;51.336;-0.846;2023-12-20T14:42:00;5;3;
79117;PMS7003;68523;51.336;-0.846;2023-12-20T14:45:00;2;1;
79117;PMS7003;68523;51.336;-0.846;2023-12-20T14:48:00;2;1;
79117;PMS7003;68523;51.336;-0.846;2023-12-20T14:51:00;1;1;
79117;PMS7003;68523;51.336;-0.846;2023-12-20T14:54:00;1;1;
79117;PMS7003;68523;51.336;-0.846;2023-12-20T14:57:00;2;2;
79117;PMS7003;68523;51.336;-0.846;2023-12-20T15:00:00;4;2;
79117;PMS7003;68523;51.336;-0.846;2023-12-20T15:03:00;4;2;
79117;PMS7003;68523;51.336;-0.846;2023-12-20T15:06:00;2;2;
79117;PMS7003;68523;51.336;-0.846;2023-12-20T15:09:00;2;2;
79117;PMS7003;68523;51.336;-0.846;2023-12-20T15:12:00;3;2;
79117;PMS7003;68523;51.336;-0.846;2023-12-20T15:15:00;1;1;
79117;PMS7003;68523;51.336;-0.846;2023-12-20T15:18:00;1;1;
79117;PMS7003;68523;51.336;-0.846;2023-12-20T15:21:00;2;1;
79117;PMS7003;68523;51.336;-0.846;2023-12-20T15:24:00;2;1;
79117;PMS7003;68523;51.336;-0.846;2023-12-20T15:27:00;1;1;
79117;PMS7003;68523;51.336;-0.846;2023-12-20T15:30:00;1;0;
79117;PMS7003;68523;51.336;-0.846;2023-12-20T15:33:00;1;0;
79117;PMS7003;68523;51.336;-0.846;2023-12-20T15:36:00;3;3;
79117;PMS7003;68523;51.336;-0.846;2023-12-20T15:39:00;3;3;
79117;PMS7003;68523;51.336;-0.846;2023-12-20T15:42:00;1;1;
79117;PMS7003;68523;51.336;-0.846;2023-12-20T15:45:00;1;1;
79117;PMS7003;68523;51.336;-0.846;2023-12-20T15:48:00;1;1;
79117;PMS7003;68523;51.336;-0.846;2023-12-20T15:51:03;0;0;
79117;PMS7003;68523;51.336;-0.846;2023-12-20T15:54:00;0;0;
79117;PMS7003;68523;51.336;-0.846;2023-12-20T15:57:00;2;2;
79117;PMS7003;68523;51.336;-0.846;2023-12-20T16:00:03;2;1;
79117;PMS7003;68523;51.336;-0.846;2023-12-20T16:03:00;2;1;
79117;PMS7003;68523;51.336;-0.846;2023-12-20T16:06:00;0;0;
79117;PMS7003;68523;51.336;-0.846;2023-12-20T16:09:00;0;0;
79117;PMS7003;68523;51.336;-0.846;2023-12-20T16:12:00;1;0;
79117;PMS7003;68523;51.336;-0.846;2023-12-20T16:15:00;1;1;
79117;PMS7003;68523;51.336;-0.846;2023-12-20T16:18:00;1;1;
79117;PMS7003;68523;51.336;-0.846;2023-12-20T16:21:01;1;1;
79117;PMS7003;68523;51.336;-0.846;2023-12-20T16:24:00;1;1;
79117;PMS7003;68523;51.336;-0.846;2023-12-20T16:27:00;1;1;
79117;PMS7003;68523;51.336;-0.846;2023-12-20T16:30:00;2;1;
79117;PMS7003;68523;51.336;-0.846;2023-12-20T16:33:00;2;1;
79117;PMS7003;68523;51.336;-0.846;2023-12-20T16:36:00;0;0;
79117;PMS7003;68523;51.336;-0.846;2023-12-20T16:39:00;0;0;
79117;PMS7003;68523;51.336;-0.846;2023-12-20T16:42:00;3;1;
79117;PMS7003;68523;51.336;-0.846;2023-12-20T16:45:00;0;0;
79117;PMS7003;68523;51.336;-0.846;2023-12-20T16:48:00;0;0;
79117;PMS7003;68523;51.336;-0.846;2023-12-20T16:51:00;2;2;
79117;PMS7003;68523;51.336;-0.846;2023-12-20T16:54:00;2;2;
79117;PMS7003;68523;51.336;-0.846;2023-12-20T16:57:00;3;2;
79117;PMS7003;68523;51.336;-0.846;2023-12-20T17:00:00;2;2;
79117;PMS7003;68523;51.336;-0.846;2023-12-20T17:03:01;2;2;
79117;PMS7003;68523;51.336;-0.846;2023-12-20T17:06:00;3;2;
79117;PMS7003;68523;51.336;-0.846;2023-12-20T17:09:00;3;2;
79117;PMS7003;68523;51.336;-0.846;2023-12-20T17:12:00;4;4;
79117;PMS7003;68523;51.336;-0.846;2023-12-20T17:15:00;6;4;
79117;PMS7003;68523;51.336;-0.846;2023-12-20T17:18:00;6;4;
79117;PMS7003;68523;51.336;-0.846;2023-12-20T17:21:00;4;3;
79117;PMS7003;68523;51.336;-0.846;2023-12-20T17:24:00;4;3;
79117;PMS7003;68523;51.336;-0.846;2023-12-20T17:27:00;10;5;
79117;PMS7003;68523;51.336;-0.846;2023-12-20T17:30:00;10;5;
79117;PMS7003;68523;51.336;-0.846;2023-12-20T17:33:00;6;5;
79117;PMS7003;68523;51.336;-0.846;2023-12-20T17:36:00;5;5;
79117;PMS7003;68523;51.336;-0.846;2023-12-20T17:39:00;5;5;
79117;PMS7003;68523;51.336;-0.846;2023-12-20T17:42:00;9;5;
79117;PMS7003;68523;51.336;-0.846;2023-12-20T17:45:00;9;5;
79117;PMS7003;68523;51.336;-0.846;2023-12-20T17:48:00;5;3;
79117;PMS7003;68523;51.336;-0.846;2023-12-20T17:51:00;5;5;
79117;PMS7003;68523;51.336;-0.846;2023-12-20T17:54:00;5;5;
79117;PMS7003;68523;51.336;-0.846;2023-12-20T17:57:00;4;4;
79117;PMS7003;68523;51.336;-0.846;2023-12-20T18:00:10;4;4;
79117;PMS7003;68523;51.336;-0.846;2023-12-20T18:03:00;2;2;
79117;PMS7003;68523;51.336;-0.846;2023-12-20T18:06:00;3;3;
79117;PMS7003;68523;51.336;-0.846;2023-12-20T18:09:00;3;3;
79117;PMS7003;68523;51.336;-0.846;2023-12-20T18:12:00;9;4;
79117;PMS7003;68523;51.336;-0.846;2023-12-20T18:15:00;9;4;
79117;PMS7003;68523;51.336;-0.846;2023-12-20T18:18:00;3;3;
79117;PMS7003;68523;51.336;-0.846;2023-12-20T18:21:00;3;3;
79117;PMS7003;68523;51.336;-0.846;2023-12-20T18:24:00;3;3;
79117;PMS7003;68523;51.336;-0.846;2023-12-20T18:27:00;8;4;
79117;PMS7003;68523;51.336;-0.846;2023-12-20T18:30:00;8;4;
79117;PMS7003;68523;51.336;-0.846;2023-12-20T18:33:00;5;5;
79117;PMS7003;68523;51.336;-0.846;2023-12-20T18:36:01;8;5;
79117;PMS7003;68523;51.336;-0.846;2023-12-20T18:39:00;8;5;
79117;PMS7003;68523;51.336;-0.846;2023-12-20T18:42:00;9;6;
79117;PMS7003;68523;51.336;-0.846;2023-12-20T18:45:00;9;6;
79117;PMS7003;68523;51.336;-0.846;2023-12-20T18:48:00;17;10;
79117;PMS7003;68523;51.336;-0.846;2023-12-20T18:51:00;6;4;
79117;PMS7003;68523;51.336;-0.846;2023-12-20T18:54:00;6;4;
79117;PMS7003;68523;51.336;-0.846;2023-12-20T18:57:00;12;6;
79117;PMS7003;68523;51.336;-0.846;2023-12-20T19:00:00;12;6;
79117;PMS7003;68523;51.336;-0.846;2023-12-20T19:03:00;12;8;
79117;PMS7003;68523;51.336;-0.846;2023-12-20T19:06:00;10;4;
79117;PMS7003;68523;51.336;-0.846;2023-12-20T19:09:00;10;4;
79117;PMS7003;68523;51.336;-0.846;2023-12-20T19:12:00;10;8;
79117;PMS7003;68523;51.336;-0.846;2023-12-20T19:15:00;10;8;
79117;PMS7003;68523;51.336;-0.846;2023-12-20T19:18:00;10;9;
79117;PMS7003;68523;51.336;-0.846;2023-12-20T19:21:00;9;6;
79117;PMS7003;68523;51.336;-0.846;2023-12-20T19:24:00;9;6;
79117;PMS7003;68523;51.336;-0.846;2023-12-20T19:27:00;15;10;
79117;PMS7003;68523;51.336;-0.846;2023-12-20T19:30:00;15;10;
79117;PMS7003;68523;51.336;-0.846;2023-12-20T19:33:00;8;5;
79117;PMS7003;68523;51.336;-0.846;2023-12-20T19:36:00;9;8;
79117;PMS7003;68523;51.336;-0.846;2023-12-20T19:39:00;9;8;
79117;PMS7003;68523;51.336;-0.846;2023-12-20T19:42:00;8;5;
79117;PMS7003;68523;51.336;-0.846;2023-12-20T19:45:00;8;5;
79117;PMS7003;68523;51.336;-0.846;2023-12-20T19:48:00;10;5;
79117;PMS7003;68523;51.336;-0.846;2023-12-20T19:51:00;12;10;
79117;PMS7003;68523;51.336;-0.846;2023-12-20T19:54:00;12;10;
79117;PMS7003;68523;51.336;-0.846;2023-12-20T19:57:00;14;9;
79117;PMS7003;68523;51.336;-0.846;2023-12-20T20:00:00;14;9;
79117;PMS7003;68523;51.336;-0.846;2023-12-20T20:03:00;10;9;
79117;PMS7003;68523;51.336;-0.846;2023-12-20T20:06:00;13;9;
79117;PMS7003;68523;51.336;-0.846;2023-12-20T20:09:00;13;9;
79117;PMS7003;68523;51.336;-0.846;2023-12-20T20:12:00;15;8;